createdAt,value
2016-04-14T00:00:49.001Z,94.93
2016-04-14T00:01:48.972Z,94.84
2016-04-14T00:02:48.944Z,94.93
2016-04-14T00:03:48.915Z,95.12
2016-04-14T00:04:48.902Z,95.12
2016-04-14T00:05:48.874Z,95.51
2016-04-14T00:06:48.846Z,95.7
2016-04-14T00:07:48.816Z,96.26
2016-04-14T00:08:48.819Z,96.08
2016-04-14T00:09:48.774Z,95.98
2016-04-14T00:10:48.744Z,96.46
2016-04-14T00:11:48.716Z,96.55
2016-04-14T00:12:48.703Z,95.98
2016-04-14T00:13:48.690Z,95.98
2016-04-14T00:14:48.646Z,95.98
2016-04-14T00:15:48.618Z,95.51
2016-04-14T00:16:48.588Z,95.79
2016-04-14T00:17:48.576Z,95.32
2016-04-14T00:18:48.548Z,95.51
2016-04-14T00:19:48.519Z,95.32
2016-04-14T00:20:48.506Z,94.84
2016-04-14T00:21:48.477Z,95.12
2016-04-14T00:22:48.449Z,95.22
2016-04-14T00:23:48.420Z,95.03
2016-04-14T00:24:48.392Z,95.12
2016-04-14T00:25:48.378Z,95.41
2016-04-14T00:26:48.366Z,95.12
2016-04-14T00:27:48.353Z,94.74
2016-04-14T00:28:48.308Z,94.84
2016-04-14T00:29:48.265Z,94.93
2016-04-14T00:30:48.251Z,94.93
2016-04-14T00:31:48.222Z,94.37
2016-04-14T00:32:48.195Z,95.03
2016-04-14T00:33:48.166Z,94.37
2016-04-14T00:34:48.153Z,94.56
2016-04-14T00:35:48.125Z,94.18
2016-04-14T00:36:48.102Z,94.46
2016-04-14T00:37:47.918Z,94.27
2016-04-14T00:38:48.061Z,94.37
2016-04-14T00:39:48.032Z,94.46
2016-04-14T00:40:48.004Z,94.56
2016-04-14T00:41:47.973Z,93.98
2016-04-14T00:42:47.960Z,94.46
2016-04-14T00:43:47.931Z,94.84
2016-04-14T00:44:47.903Z,94.65
2016-04-14T00:45:47.874Z,95.03
2016-04-14T00:46:47.862Z,94.93
2016-04-14T00:47:47.818Z,95.03
2016-04-14T00:48:47.804Z,94.27
2016-04-14T00:49:47.776Z,94.56
2016-04-14T00:50:47.748Z,94.46
2016-04-14T00:51:47.718Z,94.27
2016-04-14T00:52:47.705Z,94.93
2016-04-14T00:53:47.678Z,94.18
2016-04-14T00:54:47.648Z,94.93
2016-04-14T00:55:47.620Z,94.93
2016-04-14T00:56:47.606Z,94.27
2016-04-14T00:57:47.578Z,94.27
2016-04-14T00:58:47.550Z,94.08
2016-04-14T00:59:47.521Z,93.55
2016-04-14T01:00:47.508Z,93.18
2016-04-14T01:01:47.480Z,92.8
2016-04-14T01:02:47.451Z,93.27
2016-04-14T01:03:47.422Z,93.08
2016-04-14T01:04:47.410Z,93.27
2016-04-14T01:05:47.380Z,92.8
2016-04-14T01:06:47.353Z,92.89
2016-04-14T01:07:47.340Z,92.8
2016-04-14T01:08:47.296Z,92.7
2016-04-14T01:09:47.282Z,93.27
2016-04-14T01:10:47.254Z,93.55
2016-04-14T01:11:47.226Z,93.75
2016-04-14T01:12:47.196Z,93.84
2016-04-14T01:13:47.184Z,93.75
2016-04-14T01:14:47.155Z,93.75
2016-04-14T01:15:47.126Z,93.84
2016-04-14T01:16:47.114Z,93.55
2016-04-14T01:17:47.070Z,93.7
2016-04-14T01:18:47.550Z,93.89
2016-04-14T01:19:47.038Z,93.6
2016-04-14T01:20:47.009Z,93.51
2016-04-14T01:21:46.981Z,94.22
2016-04-14T01:22:46.952Z,93.6
2016-04-14T01:23:46.924Z,93.51
2016-04-14T01:24:46.911Z,93.51
2016-04-14T01:25:46.882Z,93.79
2016-04-14T01:26:46.853Z,93.89
2016-04-14T01:27:46.872Z,93.89
2016-04-14T01:28:46.921Z,94.08
2016-04-14T01:29:46.783Z,94.27
2016-04-14T01:30:46.755Z,94.08
2016-04-14T01:31:46.726Z,95.22
2016-04-14T01:32:46.558Z,95.32
2016-04-14T01:33:46.669Z,95.12
2016-04-14T01:34:46.657Z,94.93
2016-04-14T01:35:46.627Z,95.32
2016-04-14T01:36:46.615Z,95.89
2016-04-14T01:37:46.571Z,95.98
2016-04-14T01:38:46.542Z,96.17
2016-04-14T01:39:46.529Z,96.45
2016-04-14T01:40:46.501Z,96.45
2016-04-14T01:41:46.487Z,96.17
2016-04-14T01:42:46.443Z,96.55
2016-04-14T01:43:46.415Z,96.36
2016-04-14T01:44:46.402Z,96.65
2016-04-14T01:45:46.373Z,95.98
2016-04-14T01:46:46.345Z,95.79
2016-04-14T01:47:46.316Z,96.26
2016-04-14T01:48:46.303Z,96.22
2016-04-14T01:49:46.275Z,96.26
2016-04-14T01:50:46.247Z,95.94
2016-04-14T01:51:46.217Z,95.94
2016-04-14T01:52:46.189Z,95.94
2016-04-14T01:53:46.161Z,95.94
2016-04-14T01:54:46.147Z,96.12
2016-04-14T01:55:46.119Z,96.22
2016-04-14T01:56:46.090Z,96.22
2016-04-14T01:57:46.078Z,96.69
2016-04-14T01:58:46.033Z,96.12
2016-04-14T01:59:46.005Z,96.03
2016-04-14T02:00:45.992Z,96.69
2016-04-14T02:01:45.963Z,96.5
2016-04-14T02:02:45.935Z,96.79
2016-04-14T02:03:45.907Z,96.31
2016-04-14T02:04:45.893Z,97.07
2016-04-14T02:05:45.865Z,97.27
2016-04-14T02:06:45.820Z,96.98
2016-04-14T02:07:45.807Z,97.74
2016-04-14T02:08:45.779Z,98.02
2016-04-14T02:09:45.751Z,98.5
2016-04-14T02:10:45.721Z,98.5
2016-04-14T02:11:45.693Z,98.5
2016-04-14T02:12:45.680Z,99.07
2016-04-14T02:13:45.651Z,99.44
2016-04-14T02:14:45.623Z,99.16
2016-04-14T02:15:45.595Z,99.54
2016-04-14T02:16:45.598Z,99.44
2016-04-14T02:17:45.538Z,99.44
2016-04-14T02:18:45.525Z,99.73
2016-04-14T02:19:45.495Z,99.64
2016-04-14T02:20:45.468Z,99.83
2016-04-14T02:21:45.455Z,99.35
2016-04-14T02:22:45.411Z,99.44
2016-04-14T02:23:45.398Z,99.16
2016-04-14T02:24:45.369Z,98.59
2016-04-14T02:25:45.341Z,98.5
2016-04-14T02:26:45.311Z,98.02
2016-04-14T02:27:45.299Z,97.64
2016-04-14T02:28:45.269Z,97.45
2016-04-14T02:29:45.227Z,97.55
2016-04-14T02:30:45.213Z,97.31
2016-04-14T02:31:45.184Z,97.17
2016-04-14T02:32:45.156Z,96.79
2016-04-14T02:33:45.127Z,97.02
2016-04-14T02:34:45.099Z,97.02
2016-04-14T02:35:45.102Z,96.45
2016-04-14T02:36:45.057Z,96.64
2016-04-14T02:37:45.013Z,96.64
2016-04-14T02:38:45.001Z,96.26
2016-04-14T02:39:44.971Z,96.93
2016-04-14T02:40:44.943Z,96.64
2016-04-14T02:41:44.915Z,97.31
2016-04-14T02:42:44.901Z,97.31
2016-04-14T02:43:44.873Z,97.78
2016-04-14T02:44:44.845Z,97.41
2016-04-14T02:45:44.800Z,98.07
2016-04-14T02:46:44.787Z,97.97
2016-04-14T02:47:44.759Z,97.97
2016-04-14T02:48:44.730Z,97.97
2016-04-14T02:49:44.701Z,98.64
2016-04-14T02:50:44.689Z,98.35
2016-04-14T02:51:44.644Z,98.83
2016-04-14T02:52:44.617Z,99.11
2016-04-14T02:53:44.603Z,98.92
2016-04-14T02:54:44.575Z,99.02
2016-04-14T02:55:44.546Z,98.73
2016-04-14T02:56:44.533Z,98.64
2016-04-14T02:57:44.489Z,98.35
2016-04-14T02:58:44.460Z,98.73
2016-04-14T02:59:44.447Z,99.21
2016-04-14T03:00:44.419Z,98.26
2016-04-14T03:01:44.391Z,98.26
2016-04-14T03:02:44.361Z,98.45
2016-04-14T03:03:44.333Z,98.45
2016-04-14T03:04:44.320Z,98.73
2016-04-14T03:05:44.277Z,98.92
2016-04-14T03:06:44.263Z,98.73
2016-04-14T03:07:44.234Z,98.54
2016-04-14T03:08:44.207Z,98.64
2016-04-14T03:09:44.177Z,99.11
2016-04-14T03:10:44.149Z,98.83
2016-04-14T03:11:44.120Z,99.11
2016-04-14T03:12:44.107Z,98.64
2016-04-14T03:13:44.078Z,99.58
2016-04-14T03:14:44.035Z,99.4
2016-04-14T03:15:44.021Z,99.99
2016-04-14T03:16:43.992Z,99.99
2016-04-14T03:17:43.965Z,99.99
2016-04-14T03:18:43.936Z,99.99
2016-04-14T03:19:43.907Z,99.99
2016-04-14T03:20:43.895Z,99.99
2016-04-14T03:21:43.850Z,99.99
2016-04-14T03:22:43.822Z,99.99
2016-04-14T03:23:43.809Z,99.99
2016-04-14T03:24:43.780Z,99.99
2016-04-14T03:25:43.611Z,99.99
2016-04-14T03:26:43.723Z,99.99
2016-04-14T03:27:43.710Z,99.99
2016-04-14T03:28:43.667Z,99.99
2016-04-14T03:29:43.638Z,99.99
2016-04-14T03:30:43.609Z,99.99
2016-04-14T03:31:43.596Z,99.99
2016-04-14T03:32:43.567Z,99.99
2016-04-14T03:33:43.539Z,99.99
2016-04-14T03:34:43.510Z,99.99
2016-04-14T03:35:43.482Z,99.99
2016-04-14T03:36:43.452Z,99.99
2016-04-14T03:37:43.440Z,99.99
2016-04-14T03:38:43.396Z,99.99
2016-04-14T03:39:43.368Z,99.99
2016-04-14T03:40:43.338Z,99.99
2016-04-14T03:41:43.326Z,99.99
2016-04-14T03:42:43.313Z,99.99
2016-04-14T03:43:43.284Z,99.99
2016-04-14T03:44:43.240Z,99.99
2016-04-14T03:45:43.212Z,99.99
2016-04-14T03:46:43.183Z,99.99
2016-04-14T03:47:43.171Z,99.99
2016-04-14T03:48:43.126Z,99.99
2016-04-14T03:49:43.112Z,99.99
2016-04-14T03:50:43.070Z,99.99
2016-04-14T03:51:43.056Z,99.99
2016-04-14T03:52:43.028Z,99.99
2016-04-14T03:53:42.998Z,99.99
2016-04-14T03:54:42.970Z,99.99
2016-04-14T03:55:43.004Z,99.99
2016-04-14T03:56:42.929Z,99.99
2016-04-14T03:57:42.900Z,99.99
2016-04-14T03:58:42.871Z,99.99
2016-04-14T03:59:42.843Z,99.99
2016-04-14T04:00:42.814Z,99.99
2016-04-14T04:01:42.802Z,99.99
2016-04-14T04:02:42.757Z,99.99
2016-04-14T04:03:42.729Z,99.99
2016-04-14T04:04:42.700Z,99.99
2016-04-14T04:05:42.687Z,99.99
2016-04-14T04:06:42.658Z,99.99
2016-04-14T04:07:42.630Z,99.99
2016-04-14T04:08:42.601Z,99.99
2016-04-14T04:09:42.589Z,99.99
2016-04-14T04:10:42.419Z,99.99
2016-04-14T04:11:42.515Z,99.99
2016-04-14T04:12:42.488Z,99.99
2016-04-14T04:13:42.474Z,99.99
2016-04-14T04:14:42.446Z,99.99
2016-04-14T04:15:42.402Z,99.99
2016-04-14T04:16:42.404Z,99.99
2016-04-14T04:17:42.360Z,99.07
2016-04-14T04:18:42.332Z,99.11
2016-04-14T04:19:42.318Z,98.83
2016-04-14T04:20:42.290Z,98.83
2016-04-14T04:21:42.262Z,98.64
2016-04-14T04:22:42.234Z,98.73
2016-04-14T04:23:42.204Z,98.92
2016-04-14T04:24:42.176Z,99.21
2016-04-14T04:25:42.147Z,99.11
2016-04-14T04:26:42.119Z,99.49
2016-04-14T04:27:42.090Z,99.11
2016-04-14T04:28:42.062Z,99.3
2016-04-14T04:29:42.033Z,99.11
2016-04-14T04:30:42.019Z,99.21
2016-04-14T04:31:41.992Z,99.11
2016-04-14T04:32:41.963Z,99.3
2016-04-14T04:33:41.935Z,98.83
2016-04-14T04:34:41.906Z,99.11
2016-04-14T04:35:41.877Z,99.3
2016-04-14T04:36:41.849Z,99.4
2016-04-14T04:37:41.836Z,99.4
2016-04-14T04:38:41.791Z,99.11
2016-04-14T04:39:41.779Z,99.21
2016-04-14T04:40:41.749Z,98.54
2016-04-14T04:41:41.721Z,98.73
2016-04-14T04:42:41.693Z,98.54
2016-04-14T04:43:41.665Z,99.11
2016-04-14T04:44:41.651Z,98.26
2016-04-14T04:45:41.607Z,98.07
2016-04-14T04:46:41.579Z,98.54
2016-04-14T04:47:41.550Z,98.64
2016-04-14T04:48:41.537Z,98.64
2016-04-14T04:49:41.509Z,98.35
2016-04-14T04:50:41.480Z,98.54
2016-04-14T04:51:41.467Z,98.54
2016-04-14T04:52:41.423Z,98.45
2016-04-14T04:53:41.395Z,98.64
2016-04-14T04:54:41.366Z,98.35
2016-04-14T04:55:41.337Z,98.64
2016-04-14T04:56:41.325Z,97.78
2016-04-14T04:57:41.295Z,98.07
2016-04-14T04:58:41.267Z,97.88
2016-04-14T04:59:41.238Z,97.97
2016-04-14T05:00:41.210Z,97.97
2016-04-14T05:01:41.182Z,97.88
2016-04-14T05:02:41.153Z,97.88
2016-04-14T05:03:41.124Z,97.6
2016-04-14T05:04:41.097Z,98.07
2016-04-14T05:05:41.083Z,97.78
2016-04-14T05:06:41.055Z,97.78
2016-04-14T05:07:41.026Z,97.78
2016-04-14T05:08:41.013Z,97.88
2016-04-14T05:09:40.968Z,97.69
2016-04-14T05:10:40.941Z,97.88
2016-04-14T05:11:40.927Z,97.88
2016-04-14T05:12:40.899Z,97.88
2016-04-14T05:13:40.885Z,97.88
2016-04-14T05:14:40.900Z,97.5
2016-04-14T05:15:40.916Z,97.88
2016-04-14T05:16:40.932Z,97.88
2016-04-14T05:17:40.949Z,97.6
2016-04-14T05:18:40.970Z,97.45
2016-04-14T05:19:40.959Z,97.5
2016-04-14T05:20:40.946Z,97.6
2016-04-14T05:21:40.933Z,97.92
2016-04-14T05:22:40.921Z,98.02
2016-04-14T05:23:40.906Z,97.27
2016-04-14T05:24:40.898Z,97.45
2016-04-14T05:25:40.875Z,97.55
2016-04-14T05:26:40.852Z,97.64
2016-04-14T05:27:40.829Z,97.36
2016-04-14T05:28:40.806Z,97.36
2016-04-14T05:29:40.796Z,97.07
2016-04-14T05:30:40.753Z,96.41
2016-04-14T05:31:40.743Z,96.22
2016-04-14T05:32:40.701Z,96.6
2016-04-14T05:33:40.690Z,96.31
2016-04-14T05:34:40.661Z,96.31
2016-04-14T05:35:40.634Z,96.03
2016-04-14T05:36:40.607Z,96.31
2016-04-14T05:37:40.579Z,96.22
2016-04-14T05:38:40.566Z,96.5
2016-04-14T05:39:40.538Z,96.98
2016-04-14T05:40:40.509Z,97.07
2016-04-14T05:41:40.480Z,96.79
2016-04-14T05:42:40.452Z,96.31
2016-04-14T05:43:40.438Z,96.55
2016-04-14T05:44:40.394Z,96.03
2016-04-14T05:45:40.382Z,95.46
2016-04-14T05:46:40.354Z,95.6
2016-04-14T05:47:40.325Z,95.98
2016-04-14T05:48:40.296Z,95.79
2016-04-14T05:49:40.268Z,95.51
2016-04-14T05:50:40.240Z,95.22
2016-04-14T05:51:40.226Z,95.32
2016-04-14T05:52:40.213Z,95.22
2016-04-14T05:53:40.169Z,95.22
2016-04-14T05:54:40.140Z,95.03
2016-04-14T05:55:40.112Z,94.74
2016-04-14T05:56:40.083Z,94.84
2016-04-14T05:57:40.070Z,94.84
2016-04-14T05:58:40.042Z,94.93
2016-04-14T05:59:40.014Z,94.37
2016-04-14T06:00:39.985Z,94.18
2016-04-14T06:01:39.956Z,94.22
2016-04-14T06:02:39.943Z,94.51
2016-04-14T06:03:39.915Z,93.94
2016-04-14T06:04:39.886Z,93.94
2016-04-14T06:05:39.873Z,93.84
2016-04-14T06:06:39.844Z,93.65
2016-04-14T06:07:39.847Z,93.55
2016-04-14T06:08:39.630Z,93.75
2016-04-14T06:09:39.774Z,93.27
2016-04-14T06:10:39.730Z,93.18
2016-04-14T06:11:39.716Z,93.27
2016-04-14T06:12:39.688Z,93.08
2016-04-14T06:13:39.676Z,93.27
2016-04-14T06:14:39.646Z,93.46
2016-04-14T06:15:39.618Z,92.51
2016-04-14T06:16:39.590Z,92.51
2016-04-14T06:17:42.327Z,92.51
2016-04-14T06:18:41.657Z,92.36
2016-04-14T06:19:39.521Z,91.8
2016-04-14T06:20:39.491Z,91.8
2016-04-14T06:21:39.323Z,91.99
2016-04-14T06:22:39.450Z,91.99
2016-04-14T06:23:39.421Z,91.99
2016-04-14T06:24:39.393Z,91.8
2016-04-14T06:25:39.365Z,91.42
2016-04-14T06:26:39.352Z,91.37
2016-04-14T06:27:39.323Z,91.32
2016-04-14T06:28:39.295Z,91.17
2016-04-14T06:29:39.266Z,91.08
2016-04-14T06:30:39.237Z,90.61
2016-04-14T06:31:39.225Z,90.13
2016-04-14T06:32:39.195Z,90.32
2016-04-14T06:33:39.167Z,89.84
2016-04-14T06:34:39.138Z,89.18
2016-04-14T06:35:39.125Z,89.27
2016-04-14T06:36:39.113Z,88.89
2016-04-14T06:37:39.068Z,89.08
2016-04-14T06:38:39.055Z,89.13
2016-04-14T06:39:39.027Z,89.08
2016-04-14T06:40:38.999Z,88.93
2016-04-14T06:41:38.986Z,88.08
2016-04-14T06:42:38.957Z,88.93
2016-04-14T06:43:38.928Z,88.37
2016-04-14T06:44:38.915Z,87.98
2016-04-14T06:45:38.902Z,88.08
2016-04-14T06:46:38.874Z,88.27
2016-04-14T06:47:38.830Z,88.46
2016-04-14T06:48:38.816Z,87.7
2016-04-14T06:49:38.788Z,87.6
2016-04-14T06:50:38.775Z,87.13
2016-04-14T06:51:38.746Z,86.08
2016-04-14T06:52:38.874Z,85.99
2016-04-14T06:53:38.690Z,85.41
2016-04-14T06:54:38.677Z,85.51
2016-04-14T06:55:38.648Z,85.32
2016-04-14T06:56:38.713Z,85.46
2016-04-14T06:57:38.607Z,85.27
2016-04-14T06:58:38.579Z,84.88
2016-04-14T06:59:38.551Z,85.08
2016-04-14T07:00:41.287Z,85.46
2016-04-14T07:01:40.806Z,84.88
2016-04-14T07:02:38.496Z,84.5
2016-04-14T07:03:38.592Z,85.17
2016-04-14T07:04:38.440Z,85.17
2016-04-14T07:05:38.535Z,85.55
2016-04-14T07:06:38.393Z,85.02
2016-04-14T07:07:38.380Z,84.16
2016-04-14T07:08:38.236Z,84.64
2016-04-14T07:09:38.317Z,84.74
2016-04-14T07:10:38.308Z,84.55
2016-04-14T07:11:38.360Z,83.59
2016-04-14T07:12:38.254Z,82.35
2016-04-14T07:13:38.084Z,82.73
2016-04-14T07:14:38.204Z,82.64
2016-04-14T07:15:38.190Z,82.45
2016-04-14T07:16:38.156Z,82.64
2016-04-14T07:17:38.208Z,81.88
2016-04-14T07:18:38.132Z,81.68
2016-04-14T07:19:38.104Z,80.77
2016-04-14T07:20:38.075Z,80.01
2016-04-14T07:21:38.062Z,80.39
2016-04-14T07:22:38.033Z,79.25
2016-04-14T07:23:38.020Z,78.77
2016-04-14T07:24:37.992Z,79.53
2016-04-14T07:25:37.963Z,78.49
2016-04-14T07:26:37.793Z,78.58
2016-04-14T07:27:37.921Z,78.52
2016-04-14T07:28:37.923Z,78.81
2016-04-14T07:29:37.880Z,79.48
2016-04-14T07:30:37.867Z,78.91
2016-04-14T07:31:37.839Z,77.95
2016-04-14T07:32:37.825Z,77.95
2016-04-14T07:33:37.797Z,77.38
2016-04-14T07:34:37.769Z,75.85
2016-04-14T07:35:37.739Z,75.09
2016-04-14T07:36:37.727Z,77
2016-04-14T07:37:37.714Z,76.9
2016-04-14T07:38:37.670Z,76.33
2016-04-14T07:39:37.658Z,75.95
2016-04-14T07:40:37.645Z,75.76
2016-04-14T07:41:37.647Z,75.79
2016-04-14T07:42:37.587Z,75.32
2016-04-14T07:43:37.574Z,74.84
2016-04-14T07:44:37.561Z,72.74
2016-04-14T07:45:37.533Z,73.41
2016-04-14T07:46:37.504Z,72.36
2016-04-14T07:47:37.491Z,71.69
2016-04-14T07:48:37.462Z,71.02
2016-04-14T07:49:37.449Z,70.92
2016-04-14T07:50:37.421Z,71.92
2016-04-14T07:51:37.407Z,72.3
2016-04-14T07:52:37.396Z,71.44
2016-04-14T07:53:37.366Z,70.67
2016-04-14T07:54:37.338Z,69.82
2016-04-14T07:55:37.326Z,68.8
2016-04-14T07:56:37.328Z,67.46
2016-04-14T07:57:37.268Z,66.6
2016-04-14T07:58:37.254Z,64.05
2016-04-14T07:59:37.242Z,62.46
2016-04-14T08:00:37.213Z,60.89
2016-04-14T08:01:37.200Z,58.53
2016-04-14T08:02:37.187Z,55.42
2016-04-14T08:03:37.159Z,52.86
2016-04-14T08:04:37.146Z,50.32
2016-04-14T08:05:37.148Z,48.23
2016-04-14T08:06:37.120Z,47.49
2016-04-14T08:07:37.092Z,47.13
2016-04-14T08:08:37.107Z,44.67
2016-04-14T08:09:37.056Z,43.24
2016-04-14T08:10:37.043Z,40.28
2016-04-14T08:11:37.249Z,38.85
2016-04-14T08:12:37.033Z,37.81
2016-04-14T08:13:37.004Z,37.25
2016-04-14T08:14:36.992Z,36.11
2016-04-14T08:15:36.978Z,35.06
2016-04-14T08:16:36.950Z,34.48
2016-04-14T08:17:36.969Z,34.5
2016-04-14T08:18:36.925Z,33.83
2016-04-14T08:19:36.927Z,33.54
2016-04-14T08:20:36.914Z,32.68
2016-04-14T08:21:36.900Z,31.91
2016-04-14T08:22:36.919Z,31.63
2016-04-14T08:23:36.891Z,31.84
2016-04-14T08:24:36.862Z,30.78
2016-04-14T08:25:36.849Z,30.1
2016-04-14T08:26:36.913Z,30.02
2016-04-14T08:27:36.838Z,29.34
2016-04-14T08:28:36.826Z,29.06
2016-04-14T08:29:36.813Z,29.06
2016-04-14T08:30:36.800Z,29.64
2016-04-14T08:31:36.787Z,29.08
2016-04-14T08:32:36.790Z,29.06
2016-04-14T08:33:36.793Z,28.97
2016-04-14T08:34:36.764Z,27.62
2016-04-14T08:35:36.767Z,28.09
2016-04-14T08:36:36.808Z,28.66
2016-04-14T08:37:36.733Z,30.29
2016-04-14T08:38:36.720Z,31.62
2016-04-14T08:39:36.707Z,33.34
2016-04-14T08:40:36.710Z,34.48
2016-04-14T08:41:36.728Z,35.71
2016-04-14T08:42:36.668Z,36.15
2016-04-14T08:43:36.671Z,37.19
2016-04-14T08:44:36.642Z,37.37
2016-04-14T08:45:36.645Z,37.64
2016-04-14T08:46:36.616Z,40.34
2016-04-14T08:47:36.619Z,41.93
2016-04-14T08:48:36.606Z,43.07
2016-04-14T08:49:36.577Z,43.07
2016-04-14T08:50:36.689Z,44.38
2016-04-14T08:51:36.551Z,44.48
2016-04-14T08:52:36.554Z,45.15
2016-04-14T08:53:36.510Z,45.81
2016-04-14T08:54:36.497Z,46.96
2016-04-14T08:55:36.485Z,48.57
2016-04-14T08:56:36.549Z,48.35
2016-04-14T08:57:36.458Z,48.25
2016-04-14T08:58:36.429Z,49.02
2016-04-14T08:59:36.432Z,48.64
2016-04-14T09:00:36.404Z,48.07
2016-04-14T09:01:36.391Z,50.82
2016-04-14T09:02:36.363Z,50.7
2016-04-14T09:03:36.350Z,51.08
2016-04-14T09:04:36.337Z,50.32
2016-04-14T09:05:36.324Z,51.44
2016-04-14T09:06:36.312Z,51.75
2016-04-14T09:07:36.282Z,52.59
2016-04-14T09:08:36.270Z,53.16
2016-04-14T09:09:36.240Z,53.71
2016-04-14T09:10:36.228Z,53.52
2016-04-14T09:11:36.214Z,54
2016-04-14T09:12:36.186Z,53.42
2016-04-14T09:13:36.173Z,54.67
2016-04-14T09:14:36.175Z,54.96
2016-04-14T09:15:36.132Z,55.24
2016-04-14T09:16:36.119Z,56.39
2016-04-14T09:17:36.106Z,55.69
2016-04-14T09:18:36.094Z,55.98
2016-04-14T09:19:36.064Z,55.79
2016-04-14T09:20:36.052Z,55.02
2016-04-14T09:21:36.022Z,56.08
2016-04-14T09:22:35.994Z,56.46
2016-04-14T09:23:35.981Z,57.13
2016-04-14T09:24:35.968Z,57.23
2016-04-14T09:25:35.955Z,57.99
2016-04-14T09:26:35.927Z,57.99
2016-04-14T09:27:35.898Z,59.05
2016-04-14T09:28:35.902Z,58.56
2016-04-14T09:29:35.873Z,59.52
2016-04-14T09:30:35.844Z,58.76
2016-04-14T09:31:35.831Z,58.37
2016-04-14T09:32:35.834Z,57.9
2016-04-14T09:33:35.790Z,58.28
2016-04-14T09:34:35.776Z,58.86
2016-04-14T09:35:35.748Z,57.99
2016-04-14T09:36:35.735Z,58.86
2016-04-14T09:37:35.707Z,60.1
2016-04-14T09:38:35.694Z,60
2016-04-14T09:39:35.665Z,59.05
2016-04-14T09:40:35.668Z,59.72
2016-04-14T09:41:35.623Z,60
2016-04-14T09:42:35.611Z,60.77
2016-04-14T09:43:35.597Z,60.58
2016-04-14T09:44:35.584Z,60.29
2016-04-14T09:45:35.556Z,60.19
2016-04-14T09:46:35.527Z,60.96
2016-04-14T09:47:35.514Z,60.1
2016-04-14T09:48:35.502Z,61.08
2016-04-14T09:49:35.473Z,60.96
2016-04-14T09:50:35.491Z,59.55
2016-04-14T09:51:35.432Z,60.32
2016-04-14T09:52:35.419Z,60.61
2016-04-14T09:53:35.390Z,59.75
2016-04-14T09:54:35.377Z,60.13
2016-04-14T09:55:35.363Z,59.91
2016-04-14T09:56:35.335Z,60.48
2016-04-14T09:57:35.323Z,58.79
2016-04-14T09:58:35.294Z,59.45
2016-04-14T09:59:35.281Z,59.36
2016-04-14T10:00:35.268Z,58.5
2016-04-14T10:01:35.255Z,58.69
2016-04-14T10:02:35.212Z,56.87
2016-04-14T10:03:35.214Z,55.91
2016-04-14T10:04:35.185Z,57.45
2016-04-14T10:05:35.157Z,56.97
2016-04-14T10:06:35.143Z,57.16
2016-04-14T10:07:35.132Z,57.06
2016-04-14T10:08:35.134Z,56.68
2016-04-14T10:09:35.090Z,55.02
2016-04-14T10:10:35.062Z,54.19
2016-04-14T10:11:35.032Z,55.05
2016-04-14T10:12:35.020Z,55.24
2016-04-14T10:13:35.006Z,55.73
2016-04-14T10:14:34.994Z,55.05
2016-04-14T10:15:34.964Z,54.89
2016-04-14T10:16:34.952Z,54.5
2016-04-14T10:17:34.939Z,54.41
2016-04-14T10:18:34.911Z,54.48
2016-04-14T10:19:34.898Z,52.5
2016-04-14T10:20:34.869Z,53.64
2016-04-14T10:21:34.856Z,54.5
2016-04-14T10:22:34.827Z,53.07
2016-04-14T10:23:34.814Z,53.26
2016-04-14T10:24:34.802Z,52.5
2016-04-14T10:25:34.616Z,51.54
2016-04-14T10:26:34.760Z,52.11
2016-04-14T10:27:34.746Z,53.96
2016-04-14T10:28:34.718Z,53.96
2016-04-14T10:29:34.705Z,54.44
2016-04-14T10:30:34.677Z,54.24
2016-04-14T10:31:34.665Z,52.91
2016-04-14T10:32:34.635Z,52.23
2016-04-14T10:33:34.623Z,52.78
2016-04-14T10:34:34.610Z,51.95
2016-04-14T10:35:34.596Z,52.52
2016-04-14T10:36:34.585Z,53.77
2016-04-14T10:37:34.540Z,53.28
2016-04-14T10:38:34.559Z,52.81
2016-04-14T10:39:34.499Z,52.52
2016-04-14T10:40:34.517Z,53.28
2016-04-14T10:41:34.473Z,53.58
2016-04-14T10:42:34.444Z,53.09
2016-04-14T10:43:34.431Z,52.4
2016-04-14T10:44:34.417Z,51.25
2016-04-14T10:45:34.421Z,50
2016-04-14T10:46:34.376Z,49.81
2016-04-14T10:47:34.364Z,51.25
2016-04-14T10:48:34.336Z,52.11
2016-04-14T10:49:34.322Z,50.58
2016-04-14T10:50:34.294Z,51.22
2016-04-14T10:51:34.296Z,51.03
2016-04-14T10:52:34.267Z,51.13
2016-04-14T10:53:34.238Z,52.66
2016-04-14T10:54:34.226Z,52.09
2016-04-14T10:55:34.213Z,52.28
2016-04-14T10:56:34.185Z,52.5
2016-04-14T10:57:34.172Z,52.97
2016-04-14T10:58:34.158Z,51.92
2016-04-14T10:59:34.130Z,52.4
2016-04-14T11:00:34.117Z,53.07
2016-04-14T11:01:34.088Z,50.67
2016-04-14T11:02:34.076Z,49.84
2016-04-14T11:03:34.047Z,49.93
2016-04-14T11:04:34.035Z,49.62
2016-04-14T11:05:34.022Z,49.36
2016-04-14T11:06:33.993Z,49.65
2016-04-14T11:07:33.980Z,49.93
2016-04-14T11:08:33.967Z,49.93
2016-04-14T11:09:33.954Z,49.48
2016-04-14T11:10:33.926Z,49.67
2016-04-14T11:11:33.912Z,50.53
2016-04-14T11:12:33.900Z,49.48
2016-04-14T11:13:33.870Z,49.38
2016-04-14T11:14:33.859Z,48.8
2016-04-14T11:15:33.829Z,49.48
2016-04-14T11:16:33.817Z,46.79
2016-04-14T11:17:33.788Z,47.27
2016-04-14T11:18:33.666Z,47.17
2016-04-14T11:19:33.747Z,48.43
2016-04-14T11:20:33.733Z,48.61
2016-04-14T11:21:33.720Z,47.17
2016-04-14T11:22:33.691Z,48.04
2016-04-14T11:23:33.679Z,48.61
2016-04-14T11:24:33.666Z,47.94
2016-04-14T11:25:33.638Z,47.08
2016-04-14T11:26:33.625Z,47.37
2016-04-14T11:27:33.611Z,47.66
2016-04-14T11:28:33.583Z,47.37
2016-04-14T11:29:33.585Z,46.6
2016-04-14T11:30:33.557Z,46.41
2016-04-14T11:31:33.544Z,47.08
2016-04-14T11:32:33.516Z,47.15
2016-04-14T11:33:33.503Z,46.22
2016-04-14T11:34:33.473Z,47.06
2016-04-14T11:35:33.461Z,46.96
2016-04-14T11:36:33.448Z,45.14
2016-04-14T11:37:33.419Z,45.43
2016-04-14T11:38:33.406Z,48.11
2016-04-14T11:39:33.377Z,48.4
2016-04-14T11:40:33.380Z,47.94
2016-04-14T11:41:33.352Z,48.04
2016-04-14T11:42:33.339Z,48.13
2016-04-14T11:43:33.311Z,47.08
2016-04-14T11:44:33.297Z,45.33
2016-04-14T11:45:33.269Z,45.23
2016-04-14T11:46:33.255Z,44.95
2016-04-14T11:47:33.243Z,46.22
2016-04-14T11:48:33.230Z,46
2016-04-14T11:49:33.201Z,45.16
2016-04-14T11:50:33.193Z,44.37
2016-04-14T11:51:33.180Z,44.18
2016-04-14T11:52:33.136Z,43.44
2016-04-14T11:53:33.123Z,43.82
2016-04-14T11:54:33.110Z,44.2
2016-04-14T11:55:33.098Z,44.68
2016-04-14T11:56:33.068Z,44.49
2016-04-14T11:57:33.009Z,43.05
2016-04-14T11:58:33.026Z,43.44
2016-04-14T11:59:33.029Z,43.63
2016-04-14T12:00:33.001Z,44.51
2016-04-14T12:01:32.989Z,45.37
2016-04-14T12:02:32.960Z,45.18
2016-04-14T12:03:32.947Z,43.84
2016-04-14T12:04:32.918Z,41.93
2016-04-14T12:05:32.905Z,41.93
2016-04-14T12:06:32.877Z,42.98
2016-04-14T12:07:32.864Z,43.48
2016-04-14T12:08:32.850Z,43.29
2016-04-14T12:09:32.838Z,43.29
2016-04-14T12:10:32.808Z,41.85
2016-04-14T12:11:32.797Z,40.79
2016-04-14T12:12:32.814Z,41.27
2016-04-14T12:13:32.755Z,40.7
2016-04-14T12:14:32.741Z,40.6
2016-04-14T12:15:32.729Z,40.02
2016-04-14T12:16:32.716Z,40.5
2016-04-14T12:17:32.688Z,40.48
2016-04-14T12:18:32.675Z,40.96
2016-04-14T12:19:32.646Z,41.83
2016-04-14T12:20:32.633Z,42.21
2016-04-14T12:21:32.620Z,42.11
2016-04-14T12:22:32.591Z,42.4
2016-04-14T12:23:32.579Z,43.17
2016-04-14T12:24:32.565Z,43.55
2016-04-14T12:25:32.553Z,43.65
2016-04-14T12:26:32.540Z,43.46
2016-04-14T12:27:32.511Z,43.55
2016-04-14T12:28:32.499Z,43.17
2016-04-14T12:29:32.470Z,43.46
2016-04-14T12:30:32.457Z,43.65
2016-04-14T12:31:32.459Z,43.77
2016-04-14T12:32:32.431Z,43.19
2016-04-14T12:33:32.403Z,42.23
2016-04-14T12:34:32.389Z,41.66
2016-04-14T12:35:32.376Z,42.33
2016-04-14T12:36:32.347Z,42.04
2016-04-14T12:37:32.335Z,41.94
2016-04-14T12:38:32.322Z,41.56
2016-04-14T12:39:32.294Z,41.75
2016-04-14T12:40:32.297Z,42.16
2016-04-14T12:41:32.267Z,42.16
2016-04-14T12:42:32.364Z,42.54
2016-04-14T12:43:32.257Z,42.71
2016-04-14T12:44:32.213Z,41.56
2016-04-14T12:45:32.200Z,41.94
2016-04-14T12:46:32.172Z,41.83
2016-04-14T12:47:32.159Z,42.11
2016-04-14T12:48:32.130Z,41.44
2016-04-14T12:49:32.118Z,41.63
2016-04-14T12:50:32.120Z,42.02
2016-04-14T12:51:32.091Z,41.63
2016-04-14T12:52:32.078Z,41.73
2016-04-14T12:53:32.049Z,41.83
2016-04-14T12:54:32.037Z,42.11
2016-04-14T12:55:32.024Z,42.5